sensor_id;sensor_type;location;lat;lon;timestamp;P1;durP1;ratioP1;P2;durP2;ratioP2
21862;SDS011;11096;51.338;12.524;2022-12-20T00:01:25;16.00;;;8.00;;
21862;SDS011;11096;51.338;12.524;2022-12-20T00:03:59;19.33;;;8.48;;
21862;SDS011;11096;51.338;12.524;2022-12-20T00:06:29;18.85;;;7.97;;
21862;SDS011;11096;51.338;12.524;2022-12-20T00:08:55;17.55;;;7.55;;
21862;SDS011;11096;51.338;12.524;2022-12-20T00:11:23;16.05;;;7.35;;
21862;SDS011;11096;51.338;12.524;2022-12-20T00:13:49;14.77;;;7.47;;
21862;SDS011;11096;51.338;12.524;2022-12-20T00:16:18;17.00;;;8.13;;
21862;SDS011;11096;51.338;12.524;2022-12-20T00:18:46;15.88;;;7.55;;
21862;SDS011;11096;51.338;12.524;2022-12-20T00:21:15;18.27;;;7.53;;
21862;SDS011;11096;51.338;12.524;2022-12-20T00:23:41;20.00;;;8.27;;
21862;SDS011;11096;51.338;12.524;2022-12-20T00:26:13;15.75;;;7.75;;
21862;SDS011;11096;51.338;12.524;2022-12-20T00:28:41;18.40;;;7.88;;
21862;SDS011;11096;51.338;12.524;2022-12-20T00:31:07;20.42;;;8.02;;
21862;SDS011;11096;51.338;12.524;2022-12-20T00:33:34;19.88;;;8.45;;
21862;SDS011;11096;51.338;12.524;2022-12-20T00:36:02;18.35;;;7.82;;
21862;SDS011;11096;51.338;12.524;2022-12-20T00:38:28;19.83;;;8.23;;
21862;SDS011;11096;51.338;12.524;2022-12-20T00:43:27;17.55;;;7.40;;
21862;SDS011;11096;51.338;12.524;2022-12-20T00:45:52;16.25;;;8.30;;
21862;SDS011;11096;51.338;12.524;2022-12-20T00:48:18;16.42;;;7.85;;
21862;SDS011;11096;51.338;12.524;2022-12-20T00:50:43;18.00;;;7.60;;
21862;SDS011;11096;51.338;12.524;2022-12-20T00:53:08;18.23;;;7.72;;
21862;SDS011;11096;51.338;12.524;2022-12-20T00:55:34;18.65;;;8.35;;
21862;SDS011;11096;51.338;12.524;2022-12-20T00:58:06;18.92;;;8.45;;
21862;SDS011;11096;51.338;12.524;2022-12-20T01:00:31;21.27;;;8.55;;
21862;SDS011;11096;51.338;12.524;2022-12-20T01:02:56;18.00;;;7.88;;
21862;SDS011;11096;51.338;12.524;2022-12-20T01:05:22;20.58;;;8.80;;
21862;SDS011;11096;51.338;12.524;2022-12-20T01:07:47;16.42;;;7.53;;
21862;SDS011;11096;51.338;12.524;2022-12-20T01:10:13;16.42;;;7.72;;
21862;SDS011;11096;51.338;12.524;2022-12-20T01:12:38;15.93;;;7.75;;
21862;SDS011;11096;51.338;12.524;2022-12-20T01:15:04;20.63;;;8.55;;
21862;SDS011;11096;51.338;12.524;2022-12-20T01:17:30;19.48;;;7.50;;
21862;SDS011;11096;51.338;12.524;2022-12-20T01:19:56;19.48;;;8.05;;
21862;SDS011;11096;51.338;12.524;2022-12-20T01:22:21;18.15;;;8.38;;
21862;SDS011;11096;51.338;12.524;2022-12-20T01:24:46;16.45;;;7.50;;
21862;SDS011;11096;51.338;12.524;2022-12-20T01:27:12;18.15;;;8.75;;
21862;SDS011;11096;51.338;12.524;2022-12-20T01:29:37;16.08;;;7.70;;
21862;SDS011;11096;51.338;12.524;2022-12-20T01:32:03;17.95;;;7.70;;
21862;SDS011;11096;51.338;12.524;2022-12-20T01:34:29;17.88;;;8.25;;
21862;SDS011;11096;51.338;12.524;2022-12-20T01:36:54;21.17;;;8.90;;
21862;SDS011;11096;51.338;12.524;2022-12-20T01:39:19;21.05;;;8.25;;
21862;SDS011;11096;51.338;12.524;2022-12-20T01:41:45;21.85;;;8.57;;
21862;SDS011;11096;51.338;12.524;2022-12-20T01:46:47;17.52;;;8.30;;
21862;SDS011;11096;51.338;12.524;2022-12-20T01:49:16;15.95;;;7.28;;
21862;SDS011;11096;51.338;12.524;2022-12-20T01:51:51;18.83;;;8.15;;
21862;SDS011;11096;51.338;12.524;2022-12-20T01:54:35;17.30;;;8.15;;
21862;SDS011;11096;51.338;12.524;2022-12-20T01:57:05;15.77;;;7.70;;
21862;SDS011;11096;51.338;12.524;2022-12-20T01:59:35;16.70;;;8.52;;
21862;SDS011;11096;51.338;12.524;2022-12-20T02:02:03;16.17;;;7.80;;
21862;SDS011;11096;51.338;12.524;2022-12-20T02:04:32;14.30;;;7.00;;
21862;SDS011;11096;51.338;12.524;2022-12-20T02:06:58;17.05;;;8.00;;
21862;SDS011;11096;51.338;12.524;2022-12-20T02:09:24;18.52;;;7.80;;
21862;SDS011;11096;51.338;12.524;2022-12-20T02:19:59;17.52;;;7.60;;
21862;SDS011;11096;51.338;12.524;2022-12-20T02:25:32;17.30;;;8.50;;
21862;SDS011;11096;51.338;12.524;2022-12-20T02:31:04;17.13;;;7.88;;
21862;SDS011;11096;51.338;12.524;2022-12-20T02:33:35;17.45;;;7.78;;
21862;SDS011;11096;51.338;12.524;2022-12-20T02:36:03;17.92;;;7.72;;
21862;SDS011;11096;51.338;12.524;2022-12-20T02:41:16;19.65;;;7.97;;
21862;SDS011;11096;51.338;12.524;2022-12-20T02:43:43;16.77;;;7.32;;
21862;SDS011;11096;51.338;12.524;2022-12-20T02:46:30;19.25;;;8.90;;
21862;SDS011;11096;51.338;12.524;2022-12-20T02:48:59;19.33;;;8.40;;
21862;SDS011;11096;51.338;12.524;2022-12-20T02:51:28;19.30;;;8.40;;
21862;SDS011;11096;51.338;12.524;2022-12-20T02:53:56;18.90;;;10.18;;
21862;SDS011;11096;51.338;12.524;2022-12-20T02:56:28;21.25;;;8.68;;
21862;SDS011;11096;51.338;12.524;2022-12-20T02:58:58;21.30;;;9.10;;
21862;SDS011;11096;51.338;12.524;2022-12-20T03:01:36;22.15;;;10.05;;
21862;SDS011;11096;51.338;12.524;2022-12-20T03:04:06;23.23;;;8.98;;
21862;SDS011;11096;51.338;12.524;2022-12-20T03:06:32;19.73;;;9.32;;
21862;SDS011;11096;51.338;12.524;2022-12-20T03:08:58;23.13;;;9.43;;
21862;SDS011;11096;51.338;12.524;2022-12-20T03:11:23;21.65;;;9.77;;
21862;SDS011;11096;51.338;12.524;2022-12-20T03:13:49;24.45;;;9.95;;
21862;SDS011;11096;51.338;12.524;2022-12-20T03:16:15;24.88;;;10.00;;
21862;SDS011;11096;51.338;12.524;2022-12-20T03:18:40;24.67;;;9.85;;
21862;SDS011;11096;51.338;12.524;2022-12-20T03:21:05;26.00;;;9.70;;
21862;SDS011;11096;51.338;12.524;2022-12-20T03:23:31;20.15;;;10.43;;
21862;SDS011;11096;51.338;12.524;2022-12-20T03:25:56;24.23;;;9.88;;
21862;SDS011;11096;51.338;12.524;2022-12-20T03:28:22;22.08;;;10.35;;
21862;SDS011;11096;51.338;12.524;2022-12-20T03:30:47;21.55;;;10.35;;
21862;SDS011;11096;51.338;12.524;2022-12-20T03:33:13;25.63;;;10.13;;
21862;SDS011;11096;51.338;12.524;2022-12-20T03:35:38;22.60;;;10.38;;
21862;SDS011;11096;51.338;12.524;2022-12-20T03:38:04;24.90;;;10.52;;
21862;SDS011;11096;51.338;12.524;2022-12-20T03:40:29;23.40;;;11.52;;
21862;SDS011;11096;51.338;12.524;2022-12-20T03:42:55;26.38;;;11.15;;
21862;SDS011;11096;51.338;12.524;2022-12-20T03:45:20;25.20;;;10.30;;
21862;SDS011;11096;51.338;12.524;2022-12-20T03:47:46;24.27;;;11.25;;
21862;SDS011;11096;51.338;12.524;2022-12-20T03:50:11;27.65;;;11.30;;
21862;SDS011;11096;51.338;12.524;2022-12-20T03:52:36;31.48;;;11.45;;
21862;SDS011;11096;51.338;12.524;2022-12-20T03:55:02;27.77;;;11.13;;
21862;SDS011;11096;51.338;12.524;2022-12-20T03:57:28;27.80;;;10.45;;
21862;SDS011;11096;51.338;12.524;2022-12-20T03:59:54;27.63;;;10.38;;
21862;SDS011;11096;51.338;12.524;2022-12-20T04:02:20;32.50;;;11.60;;
21862;SDS011;11096;51.338;12.524;2022-12-20T04:04:46;22.75;;;10.43;;
21862;SDS011;11096;51.338;12.524;2022-12-20T04:07:12;25.05;;;11.13;;
21862;SDS011;11096;51.338;12.524;2022-12-20T04:09:37;26.88;;;10.98;;
21862;SDS011;11096;51.338;12.524;2022-12-20T04:12:03;22.17;;;10.88;;
21862;SDS011;11096;51.338;12.524;2022-12-20T04:14:28;25.48;;;10.60;;
21862;SDS011;11096;51.338;12.524;2022-12-20T04:16:53;26.52;;;11.43;;
21862;SDS011;11096;51.338;12.524;2022-12-20T04:19:19;22.95;;;10.25;;
21862;SDS011;11096;51.338;12.524;2022-12-20T04:21:44;30.73;;;11.45;;
21862;SDS011;11096;51.338;12.524;2022-12-20T04:24:09;25.73;;;10.70;;
21862;SDS011;11096;51.338;12.524;2022-12-20T04:26:35;24.35;;;10.82;;
21862;SDS011;11096;51.338;12.524;2022-12-20T04:29:01;22.95;;;10.27;;
21862;SDS011;11096;51.338;12.524;2022-12-20T04:31:27;28.75;;;11.20;;
21862;SDS011;11096;51.338;12.524;2022-12-20T04:33:52;29.10;;;11.48;;
21862;SDS011;11096;51.338;12.524;2022-12-20T04:36:18;21.70;;;11.15;;
21862;SDS011;11096;51.338;12.524;2022-12-20T04:38:43;26.50;;;10.05;;
21862;SDS011;11096;51.338;12.524;2022-12-20T04:41:09;24.88;;;10.35;;
21862;SDS011;11096;51.338;12.524;2022-12-20T04:43:46;22.77;;;10.27;;
21862;SDS011;11096;51.338;12.524;2022-12-20T04:46:16;28.40;;;10.88;;
21862;SDS011;11096;51.338;12.524;2022-12-20T04:48:41;27.75;;;11.55;;
21862;SDS011;11096;51.338;12.524;2022-12-20T04:51:07;24.63;;;10.43;;
21862;SDS011;11096;51.338;12.524;2022-12-20T04:53:32;24.52;;;11.10;;
21862;SDS011;11096;51.338;12.524;2022-12-20T04:56:26;27.08;;;10.60;;
21862;SDS011;11096;51.338;12.524;2022-12-20T04:58:53;27.17;;;10.57;;
21862;SDS011;11096;51.338;12.524;2022-12-20T05:01:20;25.42;;;10.73;;
21862;SDS011;11096;51.338;12.524;2022-12-20T05:03:46;27.10;;;11.18;;
21862;SDS011;11096;51.338;12.524;2022-12-20T05:06:13;22.05;;;10.40;;
21862;SDS011;11096;51.338;12.524;2022-12-20T05:08:39;23.33;;;11.13;;
21862;SDS011;11096;51.338;12.524;2022-12-20T05:11:04;25.70;;;10.85;;
21862;SDS011;11096;51.338;12.524;2022-12-20T05:13:30;23.63;;;10.77;;
21862;SDS011;11096;51.338;12.524;2022-12-20T05:15:56;22.95;;;10.10;;
21862;SDS011;11096;51.338;12.524;2022-12-20T05:18:23;27.00;;;10.82;;
21862;SDS011;11096;51.338;12.524;2022-12-20T05:20:50;29.17;;;11.85;;
21862;SDS011;11096;51.338;12.524;2022-12-20T05:23:38;24.83;;;10.93;;
21862;SDS011;11096;51.338;12.524;2022-12-20T05:26:22;23.98;;;9.13;;
21862;SDS011;11096;51.338;12.524;2022-12-20T05:28:48;23.92;;;10.82;;
21862;SDS011;11096;51.338;12.524;2022-12-20T05:31:14;25.85;;;10.98;;
21862;SDS011;11096;51.338;12.524;2022-12-20T05:33:39;25.08;;;10.18;;
21862;SDS011;11096;51.338;12.524;2022-12-20T05:36:05;22.63;;;9.25;;
21862;SDS011;11096;51.338;12.524;2022-12-20T05:38:30;22.65;;;9.98;;
21862;SDS011;11096;51.338;12.524;2022-12-20T05:40:56;23.35;;;10.85;;
21862;SDS011;11096;51.338;12.524;2022-12-20T05:43:21;21.48;;;9.60;;
21862;SDS011;11096;51.338;12.524;2022-12-20T05:45:51;26.77;;;11.00;;
21862;SDS011;11096;51.338;12.524;2022-12-20T05:48:17;19.52;;;10.00;;
21862;SDS011;11096;51.338;12.524;2022-12-20T05:50:47;21.73;;;9.65;;
21862;SDS011;11096;51.338;12.524;2022-12-20T05:53:12;26.45;;;10.05;;
21862;SDS011;11096;51.338;12.524;2022-12-20T05:55:48;22.73;;;10.60;;
21862;SDS011;11096;51.338;12.524;2022-12-20T05:58:15;25.17;;;10.10;;
21862;SDS011;11096;51.338;12.524;2022-12-20T06:00:41;22.75;;;9.70;;
21862;SDS011;11096;51.338;12.524;2022-12-20T06:03:07;22.67;;;10.52;;
21862;SDS011;11096;51.338;12.524;2022-12-20T06:05:37;22.58;;;10.52;;
21862;SDS011;11096;51.338;12.524;2022-12-20T06:08:06;26.52;;;10.50;;
21862;SDS011;11096;51.338;12.524;2022-12-20T06:10:32;21.42;;;10.10;;
21862;SDS011;11096;51.338;12.524;2022-12-20T06:13:01;23.63;;;8.98;;
21862;SDS011;11096;51.338;12.524;2022-12-20T06:15:27;28.83;;;10.48;;
21862;SDS011;11096;51.338;12.524;2022-12-20T06:17:53;22.00;;;9.80;;
21862;SDS011;11096;51.338;12.524;2022-12-20T06:20:19;20.42;;;9.98;;
21862;SDS011;11096;51.338;12.524;2022-12-20T06:22:44;21.83;;;9.50;;
21862;SDS011;11096;51.338;12.524;2022-12-20T06:25:09;21.83;;;9.80;;
21862;SDS011;11096;51.338;12.524;2022-12-20T06:27:36;23.67;;;9.85;;
21862;SDS011;11096;51.338;12.524;2022-12-20T06:30:03;21.10;;;9.65;;
21862;SDS011;11096;51.338;12.524;2022-12-20T06:32:29;20.67;;;9.93;;
21862;SDS011;11096;51.338;12.524;2022-12-20T06:34:54;22.08;;;9.98;;
21862;SDS011;11096;51.338;12.524;2022-12-20T06:37:20;24.85;;;10.60;;
21862;SDS011;11096;51.338;12.524;2022-12-20T06:39:45;19.23;;;9.52;;
21862;SDS011;11096;51.338;12.524;2022-12-20T06:42:11;19.42;;;9.48;;
21862;SDS011;11096;51.338;12.524;2022-12-20T06:44:36;24.48;;;10.32;;
21862;SDS011;11096;51.338;12.524;2022-12-20T06:47:02;21.83;;;10.70;;
21862;SDS011;11096;51.338;12.524;2022-12-20T06:49:27;22.45;;;9.65;;
21862;SDS011;11096;51.338;12.524;2022-12-20T06:51:54;19.95;;;9.95;;
21862;SDS011;11096;51.338;12.524;2022-12-20T06:54:19;15.75;;;8.80;;
21862;SDS011;11096;51.338;12.524;2022-12-20T06:56:44;18.95;;;8.98;;
21862;SDS011;11096;51.338;12.524;2022-12-20T06:59:10;20.90;;;9.57;;
21862;SDS011;11096;51.338;12.524;2022-12-20T07:01:35;20.83;;;8.90;;
21862;SDS011;11096;51.338;12.524;2022-12-20T07:04:01;17.65;;;9.40;;
21862;SDS011;11096;51.338;12.524;2022-12-20T07:06:26;22.48;;;9.90;;
21862;SDS011;11096;51.338;12.524;2022-12-20T07:08:53;19.35;;;9.10;;
21862;SDS011;11096;51.338;12.524;2022-12-20T07:11:19;19.38;;;9.57;;
21862;SDS011;11096;51.338;12.524;2022-12-20T07:13:44;22.52;;;9.68;;
21862;SDS011;11096;51.338;12.524;2022-12-20T07:16:09;18.10;;;8.80;;
21862;SDS011;11096;51.338;12.524;2022-12-20T07:18:35;21.02;;;9.45;;
21862;SDS011;11096;51.338;12.524;2022-12-20T07:21:01;18.85;;;9.20;;
21862;SDS011;11096;51.338;12.524;2022-12-20T07:23:27;19.30;;;9.10;;
21862;SDS011;11096;51.338;12.524;2022-12-20T07:25:56;19.58;;;10.07;;
21862;SDS011;11096;51.338;12.524;2022-12-20T07:28:23;17.27;;;9.27;;
21862;SDS011;11096;51.338;12.524;2022-12-20T07:30:51;19.10;;;9.18;;
21862;SDS011;11096;51.338;12.524;2022-12-20T07:33:16;18.55;;;9.48;;
21862;SDS011;11096;51.338;12.524;2022-12-20T07:35:42;24.90;;;9.80;;
21862;SDS011;11096;51.338;12.524;2022-12-20T07:38:09;20.90;;;9.45;;
21862;SDS011;11096;51.338;12.524;2022-12-20T07:40:38;19.65;;;9.30;;
21862;SDS011;11096;51.338;12.524;2022-12-20T07:43:06;23.10;;;9.75;;
21862;SDS011;11096;51.338;12.524;2022-12-20T07:45:31;22.80;;;9.15;;
21862;SDS011;11096;51.338;12.524;2022-12-20T07:47:58;23.50;;;9.82;;
21862;SDS011;11096;51.338;12.524;2022-12-20T07:50:23;18.33;;;9.32;;
21862;SDS011;11096;51.338;12.524;2022-12-20T07:52:50;24.67;;;10.48;;
21862;SDS011;11096;51.338;12.524;2022-12-20T07:55:15;19.27;;;10.10;;
21862;SDS011;11096;51.338;12.524;2022-12-20T07:57:43;22.52;;;9.50;;
21862;SDS011;11096;51.338;12.524;2022-12-20T08:00:16;24.95;;;10.77;;
21862;SDS011;11096;51.338;12.524;2022-12-20T08:05:52;19.10;;;8.55;;
21862;SDS011;11096;51.338;12.524;2022-12-20T08:08:20;21.15;;;9.77;;
21862;SDS011;11096;51.338;12.524;2022-12-20T08:10:46;21.35;;;9.95;;
21862;SDS011;11096;51.338;12.524;2022-12-20T08:13:13;16.38;;;8.98;;
21862;SDS011;11096;51.338;12.524;2022-12-20T08:15:38;16.35;;;9.20;;
21862;SDS011;11096;51.338;12.524;2022-12-20T08:18:04;18.08;;;9.10;;
21862;SDS011;11096;51.338;12.524;2022-12-20T08:20:30;17.80;;;9.18;;
21862;SDS011;11096;51.338;12.524;2022-12-20T08:22:56;22.63;;;9.30;;
21862;SDS011;11096;51.338;12.524;2022-12-20T08:25:21;16.67;;;8.25;;
21862;SDS011;11096;51.338;12.524;2022-12-20T08:27:47;17.52;;;8.45;;
21862;SDS011;11096;51.338;12.524;2022-12-20T08:30:13;17.85;;;9.45;;
21862;SDS011;11096;51.338;12.524;2022-12-20T08:32:39;17.88;;;8.48;;
21862;SDS011;11096;51.338;12.524;2022-12-20T08:35:05;17.73;;;8.52;;
21862;SDS011;11096;51.338;12.524;2022-12-20T08:37:30;16.35;;;8.98;;
21862;SDS011;11096;51.338;12.524;2022-12-20T08:39:56;15.48;;;8.00;;
21862;SDS011;11096;51.338;12.524;2022-12-20T08:42:21;20.77;;;9.38;;
21862;SDS011;11096;51.338;12.524;2022-12-20T08:44:47;16.60;;;8.05;;
21862;SDS011;11096;51.338;12.524;2022-12-20T08:47:12;18.58;;;8.45;;
21862;SDS011;11096;51.338;12.524;2022-12-20T08:49:37;18.73;;;8.93;;
21862;SDS011;11096;51.338;12.524;2022-12-20T08:52:03;18.90;;;8.90;;
21862;SDS011;11096;51.338;12.524;2022-12-20T08:54:28;20.08;;;9.65;;
21862;SDS011;11096;51.338;12.524;2022-12-20T08:56:54;19.48;;;9.27;;
21862;SDS011;11096;51.338;12.524;2022-12-20T08:59:20;19.20;;;9.15;;
21862;SDS011;11096;51.338;12.524;2022-12-20T09:01:45;18.80;;;9.23;;
21862;SDS011;11096;51.338;12.524;2022-12-20T09:04:11;19.77;;;9.60;;
21862;SDS011;11096;51.338;12.524;2022-12-20T09:06:37;18.60;;;8.05;;
21862;SDS011;11096;51.338;12.524;2022-12-20T09:09:02;19.45;;;8.75;;
21862;SDS011;11096;51.338;12.524;2022-12-20T09:11:29;21.33;;;8.90;;
21862;SDS011;11096;51.338;12.524;2022-12-20T09:13:56;20.33;;;9.25;;
21862;SDS011;11096;51.338;12.524;2022-12-20T09:16:26;21.27;;;9.63;;
21862;SDS011;11096;51.338;12.524;2022-12-20T09:18:54;17.73;;;8.57;;
21862;SDS011;11096;51.338;12.524;2022-12-20T09:21:20;17.85;;;8.25;;
21862;SDS011;11096;51.338;12.524;2022-12-20T09:23:48;21.48;;;9.32;;
21862;SDS011;11096;51.338;12.524;2022-12-20T09:26:15;15.63;;;8.27;;
21862;SDS011;11096;51.338;12.524;2022-12-20T09:28:41;16.48;;;8.45;;
21862;SDS011;11096;51.338;12.524;2022-12-20T09:31:10;17.25;;;8.70;;
21862;SDS011;11096;51.338;12.524;2022-12-20T09:33:37;17.83;;;8.57;;
21862;SDS011;11096;51.338;12.524;2022-12-20T09:36:02;19.63;;;8.75;;
21862;SDS011;11096;51.338;12.524;2022-12-20T09:38:29;18.50;;;8.75;;
21862;SDS011;11096;51.338;12.524;2022-12-20T09:40:57;18.50;;;9.38;;
21862;SDS011;11096;51.338;12.524;2022-12-20T09:43:25;21.52;;;9.20;;
21862;SDS011;11096;51.338;12.524;2022-12-20T09:45:52;20.15;;;9.25;;
21862;SDS011;11096;51.338;12.524;2022-12-20T09:48:24;20.25;;;8.88;;
21862;SDS011;11096;51.338;12.524;2022-12-20T09:51:05;19.42;;;8.82;;
21862;SDS011;11096;51.338;12.524;2022-12-20T09:56:15;16.20;;;7.65;;
21862;SDS011;11096;51.338;12.524;2022-12-20T09:59:07;14.43;;;7.90;;
21862;SDS011;11096;51.338;12.524;2022-12-20T10:01:37;23.25;;;9.45;;
21862;SDS011;11096;51.338;12.524;2022-12-20T10:04:05;26.58;;;9.93;;
21862;SDS011;11096;51.338;12.524;2022-12-20T10:06:43;20.10;;;8.10;;
21862;SDS011;11096;51.338;12.524;2022-12-20T10:09:53;18.65;;;8.15;;
21862;SDS011;11096;51.338;12.524;2022-12-20T10:15:16;15.07;;;8.05;;
21862;SDS011;11096;51.338;12.524;2022-12-20T10:22:55;16.60;;;8.25;;
21862;SDS011;11096;51.338;12.524;2022-12-20T10:25:42;18.88;;;7.85;;
21862;SDS011;11096;51.338;12.524;2022-12-20T10:28:12;18.65;;;7.18;;
21862;SDS011;11096;51.338;12.524;2022-12-20T10:30:40;15.52;;;7.38;;
21862;SDS011;11096;51.338;12.524;2022-12-20T10:33:15;16.15;;;7.07;;
21862;SDS011;11096;51.338;12.524;2022-12-20T10:35:44;15.93;;;7.60;;
21862;SDS011;11096;51.338;12.524;2022-12-20T10:38:10;17.90;;;8.05;;
21862;SDS011;11096;51.338;12.524;2022-12-20T10:40:45;16.23;;;7.28;;
21862;SDS011;11096;51.338;12.524;2022-12-20T10:43:19;13.10;;;7.13;;
21862;SDS011;11096;51.338;12.524;2022-12-20T10:46:05;17.05;;;8.00;;
21862;SDS011;11096;51.338;12.524;2022-12-20T10:48:36;18.27;;;7.75;;
21862;SDS011;11096;51.338;12.524;2022-12-20T10:53:49;13.77;;;7.47;;
21862;SDS011;11096;51.338;12.524;2022-12-20T10:56:33;15.07;;;7.85;;
21862;SDS011;11096;51.338;12.524;2022-12-20T10:59:22;15.07;;;7.38;;
21862;SDS011;11096;51.338;12.524;2022-12-20T11:01:54;14.40;;;6.35;;
21862;SDS011;11096;51.338;12.524;2022-12-20T11:04:29;15.07;;;6.80;;
21862;SDS011;11096;51.338;12.524;2022-12-20T11:07:03;16.23;;;7.40;;
21862;SDS011;11096;51.338;12.524;2022-12-20T11:09:56;10.93;;;6.15;;
21862;SDS011;11096;51.338;12.524;2022-12-20T11:12:23;12.93;;;7.18;;
21862;SDS011;11096;51.338;12.524;2022-12-20T11:14:49;13.40;;;6.40;;
21862;SDS011;11096;51.338;12.524;2022-12-20T11:20:10;13.32;;;6.90;;
21862;SDS011;11096;51.338;12.524;2022-12-20T11:25:34;12.48;;;6.72;;
21862;SDS011;11096;51.338;12.524;2022-12-20T11:30:49;13.82;;;6.65;;
21862;SDS011;11096;51.338;12.524;2022-12-20T11:36:21;14.20;;;6.10;;
21862;SDS011;11096;51.338;12.524;2022-12-20T11:39:14;10.63;;;6.13;;
21862;SDS011;11096;51.338;12.524;2022-12-20T11:53:00;14.13;;;6.60;;
21862;SDS011;11096;51.338;12.524;2022-12-20T11:55:33;11.63;;;6.28;;
21862;SDS011;11096;51.338;12.524;2022-12-20T11:58:02;14.55;;;6.85;;
21862;SDS011;11096;51.338;12.524;2022-12-20T12:00:42;10.95;;;5.82;;
21862;SDS011;11096;51.338;12.524;2022-12-20T12:03:32;11.70;;;6.38;;
21862;SDS011;11096;51.338;12.524;2022-12-20T12:06:08;12.10;;;6.45;;
21862;SDS011;11096;51.338;12.524;2022-12-20T12:11:21;12.23;;;6.53;;
21862;SDS011;11096;51.338;12.524;2022-12-20T12:13:51;14.57;;;6.57;;
21862;SDS011;11096;51.338;12.524;2022-12-20T12:16:28;12.43;;;6.80;;
21862;SDS011;11096;51.338;12.524;2022-12-20T12:18:57;16.30;;;7.22;;
21862;SDS011;11096;51.338;12.524;2022-12-20T12:21:30;13.57;;;7.13;;
21862;SDS011;11096;51.338;12.524;2022-12-20T12:26:48;13.48;;;6.10;;
21862;SDS011;11096;51.338;12.524;2022-12-20T12:29:15;13.63;;;6.50;;
21862;SDS011;11096;51.338;12.524;2022-12-20T12:31:43;14.50;;;6.95;;
21862;SDS011;11096;51.338;12.524;2022-12-20T12:45:23;16.52;;;6.93;;
21862;SDS011;11096;51.338;12.524;2022-12-20T12:47:56;15.43;;;6.80;;
21862;SDS011;11096;51.338;12.524;2022-12-20T12:50:36;14.40;;;7.13;;
21862;SDS011;11096;51.338;12.524;2022-12-20T12:53:22;13.20;;;6.80;;
21862;SDS011;11096;51.338;12.524;2022-12-20T12:55:54;14.63;;;6.53;;
21862;SDS011;11096;51.338;12.524;2022-12-20T13:00:52;14.80;;;6.65;;
21862;SDS011;11096;51.338;12.524;2022-12-20T13:14:11;14.27;;;6.65;;
21862;SDS011;11096;51.338;12.524;2022-12-20T13:21:56;13.52;;;7.13;;
21862;SDS011;11096;51.338;12.524;2022-12-20T13:24:27;13.02;;;6.93;;
21862;SDS011;11096;51.338;12.524;2022-12-20T13:26:55;16.38;;;6.68;;
21862;SDS011;11096;51.338;12.524;2022-12-20T13:29:26;12.13;;;6.30;;
21862;SDS011;11096;51.338;12.524;2022-12-20T13:31:56;13.65;;;6.63;;
21862;SDS011;11096;51.338;12.524;2022-12-20T13:35:22;12.40;;;6.18;;
21862;SDS011;11096;51.338;12.524;2022-12-20T13:37:27;13.18;;;6.05;;
21862;SDS011;11096;51.338;12.524;2022-12-20T13:40:20;11.38;;;5.93;;
21862;SDS011;11096;51.338;12.524;2022-12-20T13:42:55;11.35;;;6.38;;
21862;SDS011;11096;51.338;12.524;2022-12-20T13:45:23;13.13;;;5.95;;
21862;SDS011;11096;51.338;12.524;2022-12-20T13:47:54;12.30;;;6.20;;
21862;SDS011;11096;51.338;12.524;2022-12-20T13:53:01;11.35;;;5.78;;
21862;SDS011;11096;51.338;12.524;2022-12-20T13:55:32;13.80;;;5.90;;
21862;SDS011;11096;51.338;12.524;2022-12-20T13:58:10;9.93;;;5.68;;
21862;SDS011;11096;51.338;12.524;2022-12-20T14:00:38;9.95;;;5.30;;
21862;SDS011;11096;51.338;12.524;2022-12-20T14:03:05;12.90;;;6.07;;
21862;SDS011;11096;51.338;12.524;2022-12-20T14:05:41;12.35;;;5.95;;
21862;SDS011;11096;51.338;12.524;2022-12-20T14:08:07;12.63;;;5.85;;
21862;SDS011;11096;51.338;12.524;2022-12-20T14:10:38;11.25;;;5.97;;
21862;SDS011;11096;51.338;12.524;2022-12-20T14:13:13;10.95;;;5.43;;
21862;SDS011;11096;51.338;12.524;2022-12-20T14:15:51;18.80;;;5.97;;
21862;SDS011;11096;51.338;12.524;2022-12-20T14:18:24;10.48;;;5.72;;
21862;SDS011;11096;51.338;12.524;2022-12-20T14:20:50;10.45;;;5.07;;
21862;SDS011;11096;51.338;12.524;2022-12-20T14:23:20;13.18;;;5.95;;
21862;SDS011;11096;51.338;12.524;2022-12-20T14:25:54;12.13;;;6.18;;
21862;SDS011;11096;51.338;12.524;2022-12-20T14:30:50;13.35;;;6.43;;
21862;SDS011;11096;51.338;12.524;2022-12-20T14:33:27;10.65;;;5.57;;
21862;SDS011;11096;51.338;12.524;2022-12-20T14:36:16;10.13;;;5.22;;
21862;SDS011;11096;51.338;12.524;2022-12-20T14:38:45;12.63;;;6.25;;
21862;SDS011;11096;51.338;12.524;2022-12-20T14:44:17;9.80;;;5.72;;
21862;SDS011;11096;51.338;12.524;2022-12-20T14:46:46;12.63;;;6.38;;
21862;SDS011;11096;51.338;12.524;2022-12-20T14:49:17;11.55;;;5.57;;
21862;SDS011;11096;51.338;12.524;2022-12-20T14:54:39;12.35;;;6.25;;
21862;SDS011;11096;51.338;12.524;2022-12-20T14:57:18;10.18;;;5.55;;
21862;SDS011;11096;51.338;12.524;2022-12-20T15:00:00;13.60;;;6.38;;
21862;SDS011;11096;51.338;12.524;2022-12-20T15:02:39;11.10;;;6.43;;
21862;SDS011;11096;51.338;12.524;2022-12-20T15:11:00;13.60;;;6.05;;
21862;SDS011;11096;51.338;12.524;2022-12-20T15:13:40;11.05;;;6.03;;
21862;SDS011;11096;51.338;12.524;2022-12-20T15:16:13;9.73;;;5.35;;
21862;SDS011;11096;51.338;12.524;2022-12-20T15:18:41;11.82;;;5.68;;
21862;SDS011;11096;51.338;12.524;2022-12-20T15:21:13;11.73;;;6.18;;
21862;SDS011;11096;51.338;12.524;2022-12-20T15:23:45;15.77;;;6.28;;
21862;SDS011;11096;51.338;12.524;2022-12-20T15:26:16;11.00;;;5.75;;
21862;SDS011;11096;51.338;12.524;2022-12-20T15:28:43;13.73;;;6.18;;
21862;SDS011;11096;51.338;12.524;2022-12-20T15:31:12;13.30;;;6.68;;
21862;SDS011;11096;51.338;12.524;2022-12-20T15:33:40;13.25;;;6.25;;
21862;SDS011;11096;51.338;12.524;2022-12-20T15:36:12;14.23;;;7.45;;
21862;SDS011;11096;51.338;12.524;2022-12-20T15:38:43;16.85;;;7.47;;
21862;SDS011;11096;51.338;12.524;2022-12-20T15:41:19;17.02;;;7.05;;
21862;SDS011;11096;51.338;12.524;2022-12-20T15:43:45;14.68;;;6.70;;
21862;SDS011;11096;51.338;12.524;2022-12-20T15:46:12;13.20;;;6.65;;
21862;SDS011;11096;51.338;12.524;2022-12-20T15:48:38;11.18;;;5.65;;
21862;SDS011;11096;51.338;12.524;2022-12-20T15:51:05;14.00;;;6.53;;
21862;SDS011;11096;51.338;12.524;2022-12-20T15:53:39;12.80;;;6.43;;
21862;SDS011;11096;51.338;12.524;2022-12-20T15:56:05;10.80;;;5.72;;
21862;SDS011;11096;51.338;12.524;2022-12-20T15:58:30;13.77;;;5.88;;
21862;SDS011;11096;51.338;12.524;2022-12-20T16:00:57;10.50;;;5.32;;
21862;SDS011;11096;51.338;12.524;2022-12-20T16:03:28;13.60;;;6.18;;
21862;SDS011;11096;51.338;12.524;2022-12-20T16:05:55;12.77;;;5.85;;
21862;SDS011;11096;51.338;12.524;2022-12-20T16:08:21;14.82;;;6.57;;
21862;SDS011;11096;51.338;12.524;2022-12-20T16:10:47;12.27;;;6.53;;
21862;SDS011;11096;51.338;12.524;2022-12-20T16:13:16;13.43;;;6.18;;
21862;SDS011;11096;51.338;12.524;2022-12-20T16:15:45;14.80;;;6.28;;
21862;SDS011;11096;51.338;12.524;2022-12-20T16:18:11;15.18;;;6.43;;
21862;SDS011;11096;51.338;12.524;2022-12-20T16:20:36;10.98;;;5.85;;
21862;SDS011;11096;51.338;12.524;2022-12-20T16:23:03;11.10;;;5.97;;